Time;durP1;ratioP1;P1;durP2;ratioP2;P2;SDS_P1;SDS_P2;PMS_P1;PMS_P2;Temp;Humidity;BMP_temperature;BMP_pressure;BME280_temperature;BME280_humidity;BME280_pressure;Samples;Min_cycle;Max_cycle;Signal;HPM_P1;HPM_P2
2021/12/07 00:06:57;;;;;;;94.70;39.40;;;;;;;-1.28;86.28;98173.12;422583;1306;99322;-40
2021/12/07 00:17:03;;;;;;;84.90;35.60;;;;;;;-1.37;86.31;98191.91;422704;1306;108771;-39
2021/12/07 00:27:12;;;;;;;83.40;36.90;;;;;;;-1.44;86.33;98198.95;422803;1307;99283;-42
2021/12/07 00:47:28;;;;;;;77.70;34.60;;;;;;;-1.32;86.24;98188.98;422579;1306;109099;-40
2021/12/07 00:57:36;;;;;;;75.10;34.00;;;;;;;-1.21;86.10;98193.55;422388;1306;100032;-40
2021/12/07 01:28:28;;;;;;;87.10;38.60;;;;;;;-1.30;86.31;98191.31;422800;1305;112717;-40
2021/12/07 02:09:39;;;;;;;70.60;33.30;;;;;;;-1.21;86.36;98159.28;422510;1306;108841;-42
2021/12/07 02:19:46;;;;;;;60.60;28.40;;;;;;;-1.23;86.11;98166.32;422704;1306;98136;-42
2021/12/07 02:29:53;;;;;;;82.70;33.40;;;;;;;-1.37;86.21;98150.81;422650;1307;108784;-40
2021/12/07 02:40:01;;;;;;;78.90;31.80;;;;;;;-1.47;86.11;98160.54;423069;1294;99373;-42
2021/12/07 02:50:11;;;;;;;61.80;28.20;;;;;;;-1.56;86.17;98162.83;422479;1305;111718;-40
2021/12/07 03:00:26;;;;;;;54.40;26.10;;;;;;;-1.51;86.24;98152.98;422255;1306;108819;-40
2021/12/07 03:41:33;;;;;;;51.80;24.10;;;;;;;-1.72;86.16;98159.34;422656;1305;112564;-40
2021/12/07 03:51:40;;;;;;;70.30;29.10;;;;;;;-1.74;86.59;98168.67;422485;1305;107029;-40
2021/12/07 04:01:46;;;;;;;64.10;27.50;;;;;;;-1.89;86.46;98177.98;422582;1306;99308;-41
2021/12/07 04:11:55;;;;;;;75.60;29.80;;;;;;;-1.95;86.32;98178.06;422633;1305;112505;-39
2021/12/07 04:22:02;;;;;;;68.10;29.30;;;;;;;-1.92;86.35;98191.02;422628;1305;108941;-39
2021/12/07 04:32:10;;;;;;;55.70;23.90;;;;;;;-1.88;86.36;98196.45;422419;1305;98388;-39
2021/12/07 04:42:16;;;;;;;56.50;24.50;;;;;;;-1.90;86.26;98209.61;422504;1305;112433;-39
2021/12/07 05:02:53;;;;;;;72.80;30.70;;;;;;;-1.93;86.58;98226.58;422682;1305;99312;-41
2021/12/07 05:44:15;;;;;;;79.50;34.70;;;;;;;-2.09;86.51;98209.41;422440;1305;108786;-39
2021/12/07 05:54:22;;;;;;;73.20;33.40;;;;;;;-2.15;86.47;98208.28;422574;1305;98099;-40
2021/12/07 06:14:42;;;;;;;83.40;35.80;;;;;;;-2.12;86.13;98211.34;422442;1305;109061;-39
2021/12/07 06:24:49;;;;;;;87.70;37.40;;;;;;;-2.19;86.44;98215.63;422707;1305;99309;-40
2021/12/07 06:34:55;;;;;;;59.30;27.60;;;;;;;-2.24;86.32;98216.73;422568;1305;112441;-39
2021/12/07 06:45:03;;;;;;;70.10;31.00;;;;;;;-2.25;86.36;98208.98;422580;1305;107147;-40
2021/12/07 06:55:10;;;;;;;153.50;49.50;;;;;;;-2.16;86.23;98216.16;422509;1305;99273;-39
2021/12/07 07:05:18;;;;;;;147.10;51.20;;;;;;;-2.16;86.46;98228.41;422556;1306;108951;-40
2021/12/07 07:15:25;;;;;;;112.50;44.90;;;;;;;-2.13;86.42;98242.98;422453;1305;98328;-39
2021/12/07 07:25:33;;;;;;;113.20;42.80;;;;;;;-1.86;86.26;98257.44;422388;1305;112450;-40
2021/12/07 07:35:40;;;;;;;99.20;41.60;;;;;;;-1.72;86.10;98267.05;422312;1306;108968;-40
2021/12/07 07:45:51;;;;;;;79.20;33.10;;;;;;;-1.63;86.45;98276.27;422357;1305;99308;-39
2021/12/07 07:55:58;;;;;;;87.20;37.50;;;;;;;-1.77;86.26;98281.65;422582;1305;112241;-40
2021/12/07 08:06:05;;;;;;;64.20;28.40;;;;;;;-1.84;86.04;98294.25;422433;1305;108546;-41
2021/12/07 08:26:25;;;;;;;98.80;45.50;;;;;;;-1.79;86.17;98296.67;422657;1305;107949;-40
2021/12/07 08:36:32;;;;;;;81.60;35.00;;;;;;;-1.74;86.19;98299.77;422749;1305;98979;-41
2021/12/07 08:46:40;;;;;;;61.00;31.30;;;;;;;-1.59;86.08;98304.39;422402;1305;99283;-38
2021/12/07 09:07:12;;;;;;;74.00;31.00;;;;;;;-1.37;86.22;98285.50;422429;1305;99386;-39
2021/12/07 09:17:19;;;;;;;71.90;34.40;;;;;;;-1.27;86.08;98294.64;418730;1305;5644418;-40
2021/12/07 09:27:29;;;;;;;42.60;22.10;;;;;;;-1.22;86.01;98301.38;422290;1305;108966;-39
2021/12/07 09:37:42;;;;;;;56.90;26.60;;;;;;;-1.16;85.92;98300.26;422668;1305;98710;-40
2021/12/07 09:47:49;;;;;;;57.70;27.20;;;;;;;-1.12;85.95;98291.46;422471;1305;108971;-39
2021/12/07 09:57:57;;;;;;;56.30;24.70;;;;;;;-1.20;85.93;98287.86;422242;1308;99312;-41
2021/12/07 10:08:05;;;;;;;46.10;23.40;;;;;;;-1.11;85.70;98293.77;422770;1305;111320;-38
2021/12/07 10:18:14;;;;;;;52.20;24.60;;;;;;;-0.98;85.57;98291.11;422424;1305;106769;-42
2021/12/07 10:28:44;;;;;;;75.00;30.30;;;;;;;-1.03;85.52;98287.02;422661;1305;99321;-39
2021/12/07 10:38:48;;;;;;;;;;;;;;;-1.02;85.45;98286.39;422710;1305;112771;-40
2021/12/07 10:49:08;;;;;;;56.20;23.40;;;;;;;-0.97;85.34;98290.14;422210;1305;108143;-39
2021/12/07 10:59:16;;;;;;;70.20;32.20;;;;;;;-0.98;85.35;98296.02;422407;1305;99327;-39
2021/12/07 11:09:24;;;;;;;46.30;25.80;;;;;;;-0.90;85.29;98297.77;422578;1305;112520;-39
2021/12/07 11:19:32;;;;;;;55.30;25.60;;;;;;;-0.83;84.97;98294.95;422527;1305;109193;-39
2021/12/07 11:29:44;;;;;;;64.70;30.00;;;;;;;-1.02;85.10;98298.88;422333;1308;99385;-38
2021/12/07 11:39:55;;;;;;;52.30;24.60;;;;;;;-1.13;85.05;98296.55;422543;1306;112469;-37
2021/12/07 12:00:19;;;;;;;62.60;30.40;;;;;;;-0.92;85.14;98287.73;422776;1305;99933;-39
2021/12/07 12:10:26;;;;;;;60.40;26.60;;;;;;;-0.97;84.98;98292.61;422453;1306;112435;-42
2021/12/07 12:20:55;;;;;;;37.20;19.50;;;;;;;-1.05;84.56;98287.79;422694;1305;108960;-39
2021/12/07 12:31:03;;;;;;;60.30;27.20;;;;;;;-1.18;84.69;98282.58;422453;1305;99558;-41
2021/12/07 12:51:17;;;;;;;37.10;21.60;;;;;;;-1.26;84.57;98285.30;422551;1305;108940;-39
2021/12/07 13:01:28;;;;;;;58.20;26.00;;;;;;;-1.09;84.47;98307.02;422581;1306;99272;-39
2021/12/07 13:11:36;;;;;;;54.90;24.00;;;;;;;-1.06;84.65;98315.88;422351;1305;113268;-39
2021/12/07 13:21:45;;;;;;;59.20;28.70;;;;;;;-1.16;84.61;98331.85;422524;1305;108833;-40
2021/12/07 13:31:56;;;;;;;42.80;20.40;;;;;;;-1.14;84.43;98335.66;422500;1305;99308;-40
2021/12/07 13:42:02;;;;;;;44.90;22.50;;;;;;;-1.10;84.50;98330.52;422575;1305;108849;-39
2021/12/07 13:52:12;;;;;;;61.10;28.90;;;;;;;-1.03;84.57;98337.38;422530;1306;99302;-39
2021/12/07 14:02:18;;;;;;;45.40;24.20;;;;;;;-1.11;84.43;98344.10;422688;1305;99280;-39
2021/12/07 14:12:25;;;;;;;36.30;19.50;;;;;;;-1.05;84.35;98349.02;422275;1309;111351;-40
2021/12/07 14:22:32;;;;;;;62.40;31.70;;;;;;;-1.10;84.47;98349.02;422537;1306;109478;-40
2021/12/07 14:32:42;;;;;;;55.60;27.70;;;;;;;-1.21;84.41;98351.74;422487;1305;99346;-40
2021/12/07 14:42:49;;;;;;;59.40;29.60;;;;;;;-1.21;84.65;98367.98;422539;1306;112520;-41
2021/12/07 14:52:57;;;;;;;48.90;25.80;;;;;;;-1.26;84.37;98374.92;422562;1305;108955;-40
2021/12/07 15:03:04;;;;;;;46.20;24.10;;;;;;;-1.25;84.44;98378.13;422279;1305;98992;-39
2021/12/07 15:13:11;;;;;;;68.10;31.00;;;;;;;-1.34;84.47;98369.73;422827;1305;112412;-40
2021/12/07 15:23:18;;;;;;;70.90;29.70;;;;;;;-1.44;84.51;98385.30;422309;1306;109206;-39
2021/12/07 15:33:25;;;;;;;59.60;31.50;;;;;;;-1.44;84.54;98379.44;422600;1312;99186;-39
2021/12/07 15:43:33;;;;;;;51.30;26.10;;;;;;;-1.48;84.48;98378.13;422363;1312;112411;-39
2021/12/07 15:53:41;;;;;;;70.40;32.80;;;;;;;-1.48;84.68;98377.77;422599;1312;108911;-40
2021/12/07 16:03:50;;;;;;;79.90;37.10;;;;;;;-1.47;84.59;98386.27;422666;1307;99315;-39
2021/12/07 16:24:07;;;;;;;65.30;33.10;;;;;;;-1.58;84.54;98395.36;422482;1308;99279;-39
2021/12/07 16:34:17;;;;;;;66.30;33.40;;;;;;;-1.54;84.58;98393.39;422217;1311;112470;-39
2021/12/07 16:44:25;;;;;;;91.60;42.90;;;;;;;-1.48;84.80;98404.93;422425;1310;108637;-40
2021/12/07 16:54:33;;;;;;;101.50;43.10;;;;;;;-1.63;84.78;98412.16;422265;1306;99318;-40
2021/12/07 17:04:40;;;;;;;65.50;34.40;;;;;;;-1.67;84.82;98403.09;422302;1307;112528;-38
2021/12/07 17:14:47;;;;;;;74.90;37.40;;;;;;;-1.67;84.90;98392.83;422164;1311;106738;-41
2021/12/07 17:24:55;;;;;;;94.30;39.00;;;;;;;-1.64;84.91;98391.72;418724;1307;5371147;-39
2021/12/07 17:35:04;;;;;;;78.40;36.90;;;;;;;-1.71;85.21;98392.43;422265;1307;108974;-41
2021/12/07 17:45:12;;;;;;;62.30;29.20;;;;;;;-1.76;84.87;98394.85;422363;1307;99299;-39
2021/12/07 17:55:20;;;;;;;68.60;32.80;;;;;;;-1.74;84.81;98392.88;422154;1312;112970;-39
2021/12/07 18:05:27;;;;;;;83.90;38.30;;;;;;;-1.74;84.82;98400.30;422157;1312;108636;-40
2021/12/07 18:25:42;;;;;;;60.60;26.30;;;;;;;-1.91;84.97;98390.94;421899;1305;112512;-40
2021/12/07 18:35:50;;;;;;;54.40;26.20;;;;;;;-1.87;85.12;98392.33;422245;1305;108894;-40
2021/12/07 18:45:58;;;;;;;79.30;34.60;;;;;;;-1.91;85.26;98390.17;422240;1305;99321;-40
2021/12/07 18:56:05;;;;;;;57.10;27.20;;;;;;;-2.01;85.37;98394.66;422464;1306;111850;-39
2021/12/07 19:06:14;;;;;;;52.00;25.30;;;;;;;-1.99;85.10;98400.39;422662;1304;109037;-40
2021/12/07 19:16:30;;;;;;;79.20;35.70;;;;;;;-1.98;85.41;98408.17;422433;1306;99318;-40
2021/12/07 19:26:39;;;;;;;77.20;32.70;;;;;;;-2.07;85.47;98406.59;422463;1306;112513;-39
2021/12/07 19:36:46;;;;;;;56.80;28.00;;;;;;;-2.05;85.41;98403.13;422567;1307;108939;-39
2021/12/07 19:56:59;;;;;;;73.80;32.70;;;;;;;-1.94;85.35;98391.44;422689;1305;110445;-40
2021/12/07 20:07:05;;;;;;;79.90;34.40;;;;;;;-1.98;85.42;98392.92;422503;1305;108857;-40
2021/12/07 20:17:15;;;;;;;61.40;26.90;;;;;;;-2.01;85.17;98396.70;422603;1305;99315;-40
2021/12/07 20:27:20;;;;;;;;;;;;;;;-2.01;85.24;98395.47;422387;1305;106748;-39
2021/12/07 20:37:29;;;;;;;65.30;29.20;;;;;;;-2.09;85.50;98394.77;422635;1305;99303;-39
2021/12/07 21:07:52;;;;;;;51.40;24.70;;;;;;;-2.09;85.25;98404.77;422353;1305;98911;-40
2021/12/07 21:18:00;;;;;;;53.30;25.10;;;;;;;-2.03;85.44;98399.61;422633;1305;112550;-41
2021/12/07 21:28:08;;;;;;;75.00;30.50;;;;;;;-2.01;85.33;98381.02;421973;1308;108894;-40
2021/12/07 21:38:16;;;;;;;92.10;37.40;;;;;;;-2.07;85.55;98376.27;422651;1305;99318;-39
2021/12/07 21:48:23;;;;;;;60.30;27.60;;;;;;;-2.09;85.37;98376.41;422512;1306;111500;-39
2021/12/07 21:58:29;;;;;;;51.10;23.20;;;;;;;-2.10;85.21;98362.96;422513;1305;108767;-40
2021/12/07 22:08:36;;;;;;;81.60;33.00;;;;;;;-2.17;85.45;98364.79;422532;1305;99349;-40
2021/12/07 22:18:43;;;;;;;73.60;31.80;;;;;;;-2.24;85.48;98361.36;422492;1305;112788;-41
2021/12/07 22:28:51;;;;;;;63.10;27.40;;;;;;;-2.25;85.35;98362.20;422580;1305;108889;-40
2021/12/07 22:49:05;;;;;;;75.00;32.00;;;;;;;-2.28;85.43;98340.54;422447;1305;112243;-40
2021/12/07 22:59:12;;;;;;;70.00;29.10;;;;;;;-2.38;85.63;98332.56;422387;1306;108837;-40
2021/12/07 23:09:22;;;;;;;67.30;27.90;;;;;;;-2.40;85.30;98323.15;422513;1305;99459;-39
2021/12/07 23:19:30;;;;;;;53.40;22.50;;;;;;;-2.40;85.36;98305.70;422407;1305;108665;-41
2021/12/07 23:29:37;;;;;;;67.60;26.70;;;;;;;-2.44;85.41;98310.27;422574;1305;98480;-40
2021/12/07 23:39:44;;;;;;;56.90;24.10;;;;;;;-2.59;85.49;98302.40;422678;1305;112359;-40
2021/12/07 23:49:51;;;;;;;47.40;20.90;;;;;;;-2.62;85.45;98288.72;422301;1305;107760;-38
2021/12/07 23:59:58;;;;;;;57.60;25.30;;;;;;;-2.63;85.42;98286.27;422617;1305;98894;-40
